Time;durP1;ratioP1;P1;durP2;ratioP2;P2;SDS_P1;SDS_P2;PMS_P1;PMS_P2;Temp;Humidity;BMP_temperature;BMP_pressure;BME280_temperature;BME280_humidity;BME280_pressure;Samples;Min_cycle;Max_cycle;Signal;HPM_P1;HPM_P2
2021/12/03 00:00:18;;;;;;;3.00;1.27;;;;;;;;;;5112932;28;20110;-65
2021/12/03 00:02:45;;;;;;;4.13;1.00;;;;;;;;;;5113795;28;20032;-65
2021/12/03 00:05:11;;;;;;;2.55;1.10;;;;;;;;;;5113858;28;20114;-65
2021/12/03 00:07:40;;;;;;;3.65;1.15;;;;;;;;;;5113955;28;20027;-65
2021/12/03 00:10:07;;;;;;;3.47;1.40;;;;;;;;;;5114111;28;20020;-65
2021/12/03 00:12:33;;;;;;;1.98;1.13;;;;;;;;;;5113758;28;20032;-65
2021/12/03 00:15:00;;;;;;;2.85;1.25;;;;;;;;;;5113599;28;20635;-66
2021/12/03 00:17:26;;;;;;;3.03;1.30;;;;;;;;;;5103115;28;20046;-66
2021/12/03 00:19:52;;;;;;;3.30;1.40;;;;;;;;;;5113680;28;20028;-64
2021/12/03 00:22:18;;;;;;;3.83;1.15;;;;;;;;;;5113512;28;20364;-64
2021/12/03 00:24:44;;;;;;;6.57;1.50;;;;;;;;;;5113729;28;20084;-66
2021/12/03 00:27:10;;;;;;;8.38;1.70;;;;;;;;;;5113330;28;20174;-64
2021/12/03 00:29:36;;;;;;;5.82;1.58;;;;;;;;;;5113590;28;20035;-66
2021/12/03 00:32:02;;;;;;;7.13;1.10;;;;;;;;;;5113082;28;20035;-64
2021/12/03 00:34:28;;;;;;;6.00;1.30;;;;;;;;;;5113487;28;20035;-65
2021/12/03 00:36:55;;;;;;;6.72;1.27;;;;;;;;;;5112256;28;20028;-64
2021/12/03 00:39:21;;;;;;;3.63;1.02;;;;;;;;;;5113528;28;20024;-64
2021/12/03 00:41:52;;;;;;;2.83;1.27;;;;;;;;;;5113155;28;20130;-64
2021/12/03 00:44:22;;;;;;;3.92;1.15;;;;;;;;;;5113484;28;20031;-65
2021/12/03 00:46:48;;;;;;;5.15;1.10;;;;;;;;;;5113394;28;20034;-64
2021/12/03 00:49:14;;;;;;;3.60;1.13;;;;;;;;;;5113326;28;20031;-64
2021/12/03 00:51:40;;;;;;;8.15;1.20;;;;;;;;;;5097513;28;20036;-64
2021/12/03 00:54:06;;;;;;;5.15;1.20;;;;;;;;;;5092838;28;20390;-64
2021/12/03 00:56:32;;;;;;;7.75;1.20;;;;;;;;;;5093031;28;20059;-63
2021/12/03 00:58:58;;;;;;;4.93;1.38;;;;;;;;;;5092886;28;20032;-65
2021/12/03 01:01:24;;;;;;;4.10;1.20;;;;;;;;;;5093099;28;20095;-64
2021/12/03 01:03:50;;;;;;;3.42;1.05;;;;;;;;;;5094789;28;20028;-65
2021/12/03 01:06:16;;;;;;;6.00;1.27;;;;;;;;;;5096937;28;20051;-65
2021/12/03 01:08:42;;;;;;;3.38;1.15;;;;;;;;;;5096759;28;20035;-66
2021/12/03 01:11:09;;;;;;;1.55;1.00;;;;;;;;;;5107735;28;20043;-65
2021/12/03 01:13:36;;;;;;;3.03;1.20;;;;;;;;;;5117309;28;20065;-65
2021/12/03 01:16:02;;;;;;;3.25;0.95;;;;;;;;;;5117087;28;20081;-65
2021/12/03 01:18:28;;;;;;;2.78;1.10;;;;;;;;;;5117102;28;20023;-65
2021/12/03 01:20:54;;;;;;;4.32;1.10;;;;;;;;;;5116988;28;20379;-65
2021/12/03 01:23:20;;;;;;;3.45;0.93;;;;;;;;;;5117063;28;20088;-66
2021/12/03 01:25:46;;;;;;;2.53;0.88;;;;;;;;;;5117060;28;20024;-65
2021/12/03 01:28:13;;;;;;;16.52;1.08;;;;;;;;;;5093435;28;20039;-65
2021/12/03 01:30:39;;;;;;;4.05;1.00;;;;;;;;;;5096407;28;20058;-65
2021/12/03 01:33:06;;;;;;;3.20;0.95;;;;;;;;;;5096290;28;20043;-65
2021/12/03 01:35:32;;;;;;;7.22;1.17;;;;;;;;;;5096422;28;20478;-65
2021/12/03 01:37:58;;;;;;;2.30;1.10;;;;;;;;;;5096450;28;20074;-65
2021/12/03 01:40:27;;;;;;;3.40;1.10;;;;;;;;;;5096572;28;20024;-66
2021/12/03 01:42:53;;;;;;;3.35;1.10;;;;;;;;;;5096000;28;20048;-65
2021/12/03 01:45:20;;;;;;;2.13;0.82;;;;;;;;;;5096353;28;20016;-65
2021/12/03 01:47:48;;;;;;;3.10;0.95;;;;;;;;;;5096119;28;20032;-65
2021/12/03 01:50:14;;;;;;;2.65;0.80;;;;;;;;;;5104572;28;20015;-65
2021/12/03 01:52:41;;;;;;;3.78;0.90;;;;;;;;;;5116242;28;20098;-65
2021/12/03 01:55:09;;;;;;;2.60;0.73;;;;;;;;;;5116465;28;20047;-65
2021/12/03 01:57:35;;;;;;;2.55;1.02;;;;;;;;;;5116841;28;20103;-65
2021/12/03 02:00:10;;;;;;;3.78;0.77;;;;;;;;;;5116527;28;20035;-66
2021/12/03 02:02:36;;;;;;;1.70;0.77;;;;;;;;;;5115618;28;20031;-65
2021/12/03 02:05:03;;;;;;;4.45;1.02;;;;;;;;;;5116299;28;20046;-65
2021/12/03 02:07:29;;;;;;;3.65;0.82;;;;;;;;;;5116441;28;20022;-65
2021/12/03 02:09:55;;;;;;;4.22;1.10;;;;;;;;;;5116290;28;20102;-65
2021/12/03 02:12:21;;;;;;;6.32;0.80;;;;;;;;;;5112151;27;20489;-64
2021/12/03 02:14:47;;;;;;;2.38;0.70;;;;;;;;;;5094556;28;20107;-65
2021/12/03 02:17:13;;;;;;;2.78;0.90;;;;;;;;;;5094482;28;20067;-65
2021/12/03 02:19:39;;;;;;;4.07;1.20;;;;;;;;;;5104568;28;20023;-65
2021/12/03 02:22:05;;;;;;;10.38;1.58;;;;;;;;;;5114672;28;20383;-65
2021/12/03 02:24:31;;;;;;;9.35;0.98;;;;;;;;;;5096388;28;20032;-65
2021/12/03 02:26:57;;;;;;;4.90;1.00;;;;;;;;;;5107158;28;20451;-65
2021/12/03 02:29:23;;;;;;;7.03;1.00;;;;;;;;;;5115816;28;20062;-65
2021/12/03 02:31:49;;;;;;;3.45;0.80;;;;;;;;;;5115710;28;20042;-65
2021/12/03 02:34:15;;;;;;;4.22;0.77;;;;;;;;;;5115764;28;20035;-65
2021/12/03 02:36:41;;;;;;;3.85;0.70;;;;;;;;;;5097356;28;20110;-65
2021/12/03 02:39:07;;;;;;;2.83;0.90;;;;;;;;;;5115341;28;20073;-65
2021/12/03 02:41:33;;;;;;;1.70;0.80;;;;;;;;;;5114493;28;20039;-65
2021/12/03 02:43:59;;;;;;;3.78;0.80;;;;;;;;;;5115209;28;20065;-65
2021/12/03 02:46:25;;;;;;;2.63;0.73;;;;;;;;;;5115324;28;20092;-65
2021/12/03 02:48:51;;;;;;;1.80;0.73;;;;;;;;;;5115470;28;20458;-65
2021/12/03 02:51:17;;;;;;;1.05;0.50;;;;;;;;;;5115105;28;20024;-65
2021/12/03 02:53:43;;;;;;;4.07;0.80;;;;;;;;;;5114975;28;20028;-65
2021/12/03 02:56:09;;;;;;;1.52;0.90;;;;;;;;;;5097259;28;20023;-65
2021/12/03 02:58:36;;;;;;;1.83;0.70;;;;;;;;;;5114943;28;20382;-65
2021/12/03 03:01:04;;;;;;;1.10;0.70;;;;;;;;;;5114466;28;20030;-65
2021/12/03 03:03:30;;;;;;;2.28;0.90;;;;;;;;;;5115162;28;20032;-65
2021/12/03 03:05:57;;;;;;;2.05;0.75;;;;;;;;;;5115356;28;20031;-65
2021/12/03 03:08:23;;;;;;;3.50;0.63;;;;;;;;;;5114762;28;20393;-65
2021/12/03 03:10:50;;;;;;;3.53;0.70;;;;;;;;;;5114612;28;20035;-65
2021/12/03 03:13:16;;;;;;;1.40;0.52;;;;;;;;;;5115058;28;20085;-65
2021/12/03 03:15:42;;;;;;;1.30;0.75;;;;;;;;;;5115147;28;20023;-64
2021/12/03 03:18:19;;;;;;;1.33;0.70;;;;;;;;;;5114719;28;20035;-65
2021/12/03 03:20:45;;;;;;;1.38;0.52;;;;;;;;;;5114666;28;20749;-65
2021/12/03 03:23:12;;;;;;;1.90;0.70;;;;;;;;;;5111981;28;20020;-65
2021/12/03 03:25:39;;;;;;;2.40;0.80;;;;;;;;;;5094173;28;20032;-65
2021/12/03 03:28:05;;;;;;;1.15;0.63;;;;;;;;;;5094078;28;20472;-65
2021/12/03 03:30:31;;;;;;;1.40;0.60;;;;;;;;;;5094093;28;20036;-65
2021/12/03 03:32:58;;;;;;;2.35;0.77;;;;;;;;;;5095396;28;20043;-65
2021/12/03 03:35:24;;;;;;;4.57;0.73;;;;;;;;;;5114441;28;20027;-65
2021/12/03 03:37:50;;;;;;;2.13;0.55;;;;;;;;;;5114446;28;20023;-65
2021/12/03 03:40:16;;;;;;;4.07;0.77;;;;;;;;;;5114559;28;20352;-65
2021/12/03 03:42:42;;;;;;;1.88;0.70;;;;;;;;;;5113932;28;20383;-64
2021/12/03 03:45:10;;;;;;;2.67;0.70;;;;;;;;;;5114011;28;20547;-65
2021/12/03 03:47:37;;;;;;;2.65;0.77;;;;;;;;;;5114515;28;20023;-64
2021/12/03 03:50:03;;;;;;;1.83;0.70;;;;;;;;;;5111405;28;20024;-65
2021/12/03 03:52:29;;;;;;;2.13;0.80;;;;;;;;;;5093620;28;20561;-65
2021/12/03 03:54:55;;;;;;;1.50;0.60;;;;;;;;;;5093811;28;20017;-64
2021/12/03 03:57:22;;;;;;;2.63;0.70;;;;;;;;;;5093638;28;20169;-65
2021/12/03 03:59:48;;;;;;;1.45;0.70;;;;;;;;;;5093629;28;20032;-65
2021/12/03 04:02:14;;;;;;;1.27;0.60;;;;;;;;;;5093336;28;20110;-65
2021/12/03 04:04:40;;;;;;;1.05;0.50;;;;;;;;;;5093708;28;20094;-65
2021/12/03 04:07:06;;;;;;;1.65;0.77;;;;;;;;;;5103155;28;20461;-65
2021/12/03 04:09:32;;;;;;;1.33;0.60;;;;;;;;;;5112496;28;20023;-66
2021/12/03 04:11:58;;;;;;;1.48;0.70;;;;;;;;;;5113596;28;20031;-65
2021/12/03 04:14:24;;;;;;;1.48;0.68;;;;;;;;;;5113918;28;20020;-65
2021/12/03 04:16:50;;;;;;;2.60;0.73;;;;;;;;;;5095186;28;20028;-65
2021/12/03 04:19:17;;;;;;;2.45;0.63;;;;;;;;;;5114026;28;20034;-65
2021/12/03 04:21:43;;;;;;;2.53;0.55;;;;;;;;;;5113891;28;20523;-65
2021/12/03 04:24:10;;;;;;;1.63;0.70;;;;;;;;;;5110470;28;20112;-65
2021/12/03 04:26:36;;;;;;;0.98;0.50;;;;;;;;;;5110809;28;20026;-65
2021/12/03 04:29:02;;;;;;;6.15;0.60;;;;;;;;;;5111248;28;20039;-65
2021/12/03 04:31:29;;;;;;;3.70;0.70;;;;;;;;;;5100954;28;20649;-65
2021/12/03 04:33:55;;;;;;;2.05;0.57;;;;;;;;;;5102433;28;20020;-65
2021/12/03 04:36:21;;;;;;;1.98;0.50;;;;;;;;;;5107103;28;20043;-65
2021/12/03 04:38:47;;;;;;;2.35;0.80;;;;;;;;;;5100382;28;20058;-65
2021/12/03 04:41:13;;;;;;;1.80;0.60;;;;;;;;;;5099970;28;20077;-66
2021/12/03 04:43:39;;;;;;;2.05;0.70;;;;;;;;;;5099826;28;20039;-66
2021/12/03 04:46:05;;;;;;;2.70;0.70;;;;;;;;;;5074724;28;20036;-66
2021/12/03 04:48:31;;;;;;;2.35;0.63;;;;;;;;;;5092939;28;20026;-66
2021/12/03 04:50:57;;;;;;;1.50;0.70;;;;;;;;;;5097596;28;20036;-65
2021/12/03 04:53:23;;;;;;;1.40;0.73;;;;;;;;;;5092955;28;20036;-65
2021/12/03 04:55:50;;;;;;;3.42;0.60;;;;;;;;;;5096485;28;20020;-65
2021/12/03 04:58:16;;;;;;;3.35;0.88;;;;;;;;;;5104069;28;20369;-66
2021/12/03 05:00:46;;;;;;;7.65;0.95;;;;;;;;;;5102589;28;20459;-65
2021/12/03 05:03:12;;;;;;;1.90;0.65;;;;;;;;;;5101050;28;20032;-65
2021/12/03 05:05:43;;;;;;;1.88;0.70;;;;;;;;;;5103184;28;20367;-65
2021/12/03 05:08:10;;;;;;;4.07;0.70;;;;;;;;;;5103598;28;20550;-65
2021/12/03 05:10:37;;;;;;;3.40;1.10;;;;;;;;;;5104482;28;20494;-65
2021/12/03 05:13:07;;;;;;;3.20;0.80;;;;;;;;;;5101348;28;20564;-65
2021/12/03 05:15:34;;;;;;;5.93;1.00;;;;;;;;;;5100780;28;20481;-65
2021/12/03 05:18:01;;;;;;;3.83;0.90;;;;;;;;;;5103565;28;20045;-66
2021/12/03 05:20:27;;;;;;;1.98;0.85;;;;;;;;;;5111894;28;20027;-66
2021/12/03 05:22:54;;;;;;;3.47;0.80;;;;;;;;;;5112918;28;20027;-65
2021/12/03 05:25:20;;;;;;;2.55;0.85;;;;;;;;;;5112953;28;20406;-65
2021/12/03 05:27:47;;;;;;;2.38;0.70;;;;;;;;;;5113019;28;20031;-65
2021/12/03 05:30:13;;;;;;;2.55;0.88;;;;;;;;;;5112858;28;20030;-65
2021/12/03 05:32:40;;;;;;;2.42;0.98;;;;;;;;;;5112139;28;20129;-65
2021/12/03 05:35:06;;;;;;;3.22;0.90;;;;;;;;;;5112784;28;20564;-64
2021/12/03 05:37:32;;;;;;;2.25;0.95;;;;;;;;;;5112904;28;20035;-64
2021/12/03 05:39:58;;;;;;;1.90;0.70;;;;;;;;;;5112760;28;20054;-64
2021/12/03 05:42:25;;;;;;;3.20;1.00;;;;;;;;;;5112549;28;20079;-64
2021/12/03 05:44:51;;;;;;;3.70;0.93;;;;;;;;;;5112953;28;20024;-65
2021/12/03 05:47:17;;;;;;;5.90;0.90;;;;;;;;;;5112693;28;20019;-63
2021/12/03 05:49:43;;;;;;;3.35;0.75;;;;;;;;;;5111986;28;20034;-64
2021/12/03 05:52:09;;;;;;;4.13;0.80;;;;;;;;;;5116505;28;20074;-64
2021/12/03 05:54:35;;;;;;;2.30;0.70;;;;;;;;;;5097980;28;20385;-64
2021/12/03 05:57:01;;;;;;;5.40;1.30;;;;;;;;;;5116258;28;20479;-65
2021/12/03 05:59:27;;;;;;;5.68;1.23;;;;;;;;;;5116730;28;20077;-64
2021/12/03 06:01:52;;;;;;;3.47;0.80;;;;;;;;;;5116444;28;20024;-64
2021/12/03 06:04:18;;;;;;;2.72;0.95;;;;;;;;;;5116235;28;20027;-64
2021/12/03 06:06:44;;;;;;;4.43;0.70;;;;;;;;;;5097654;28;20032;-64
2021/12/03 06:09:10;;;;;;;2.58;0.88;;;;;;;;;;5116225;28;20027;-64
2021/12/03 06:11:36;;;;;;;2.40;0.90;;;;;;;;;;5108659;28;20429;-64
2021/12/03 06:14:02;;;;;;;4.90;1.10;;;;;;;;;;5116008;28;20039;-64
2021/12/03 06:16:28;;;;;;;4.88;0.80;;;;;;;;;;5097492;28;20056;-64
2021/12/03 06:18:54;;;;;;;2.55;1.00;;;;;;;;;;5116073;28;20027;-64
2021/12/03 06:21:21;;;;;;;3.85;1.05;;;;;;;;;;5115812;28;20398;-64
2021/12/03 06:23:47;;;;;;;7.78;1.20;;;;;;;;;;5115816;28;20019;-64
2021/12/03 06:26:13;;;;;;;3.03;0.77;;;;;;;;;;5116098;28;20028;-63
2021/12/03 06:28:40;;;;;;;6.05;1.08;;;;;;;;;;5115636;28;20027;-63
2021/12/03 06:31:06;;;;;;;3.00;1.02;;;;;;;;;;5115822;28;20054;-64
2021/12/03 06:33:32;;;;;;;6.20;1.10;;;;;;;;;;5115764;28;20052;-65
2021/12/03 06:35:58;;;;;;;8.43;1.00;;;;;;;;;;5115704;28;20027;-66
2021/12/03 06:38:25;;;;;;;3.92;1.20;;;;;;;;;;5115717;28;20451;-65
2021/12/03 06:40:52;;;;;;;6.03;0.90;;;;;;;;;;5115210;28;20046;-71
2021/12/03 06:43:18;;;;;;;14.38;1.40;;;;;;;;;;5114707;28;20032;-65
2021/12/03 06:45:45;;;;;;;5.50;1.50;;;;;;;;;;5097153;28;20024;-65
2021/12/03 06:48:10;;;;;;;6.45;1.27;;;;;;;;;;5097010;28;20446;-66
2021/12/03 06:50:37;;;;;;;8.65;1.30;;;;;;;;;;5115526;28;20035;-67
2021/12/03 06:53:09;;;;;;;6.78;1.30;;;;;;;;;;5115169;28;20042;-65
2021/12/03 06:55:46;;;;;;;4.55;1.15;;;;;;;;;;5115821;28;20022;-66
2021/12/03 06:58:13;;;;;;;3.20;1.23;;;;;;;;;;5115063;28;20030;-65
2021/12/03 07:00:39;;;;;;;8.13;1.77;;;;;;;;;;5099559;28;20015;-66
2021/12/03 07:03:05;;;;;;;5.85;1.30;;;;;;;;;;5114922;28;20023;-67
2021/12/03 07:05:31;;;;;;;3.90;1.30;;;;;;;;;;5115113;28;20022;-66
2021/12/03 07:07:57;;;;;;;3.97;1.20;;;;;;;;;;5115036;28;20379;-66
2021/12/03 07:10:23;;;;;;;2.67;1.23;;;;;;;;;;5114946;28;20026;-67
2021/12/03 07:12:49;;;;;;;4.72;1.30;;;;;;;;;;5114396;28;20046;-66
2021/12/03 07:15:16;;;;;;;9.23;1.60;;;;;;;;;;5115439;28;20027;-66
2021/12/03 07:17:42;;;;;;;4.68;1.48;;;;;;;;;;5113869;28;20030;-66
2021/12/03 07:20:08;;;;;;;5.50;1.25;;;;;;;;;;5114947;28;20333;-67
2021/12/03 07:22:35;;;;;;;7.78;1.42;;;;;;;;;;5114677;28;20038;-67
2021/12/03 07:25:01;;;;;;;7.22;1.40;;;;;;;;;;5096410;28;20030;-66
2021/12/03 07:27:27;;;;;;;6.70;1.75;;;;;;;;;;5114465;28;20028;-66
2021/12/03 07:29:53;;;;;;;3.70;1.35;;;;;;;;;;5096237;28;20031;-66
2021/12/03 07:32:20;;;;;;;6.55;1.60;;;;;;;;;;5114406;28;20508;-67
2021/12/03 07:34:46;;;;;;;5.40;1.38;;;;;;;;;;5096005;28;20035;-67
2021/12/03 07:37:12;;;;;;;13.57;1.92;;;;;;;;;;5114414;28;20063;-68
2021/12/03 07:39:38;;;;;;;19.55;1.50;;;;;;;;;;5114576;28;20032;-68
2021/12/03 07:42:05;;;;;;;17.00;1.77;;;;;;;;;;5114218;28;20039;-68
2021/12/03 07:44:32;;;;;;;27.20;1.95;;;;;;;;;;5104324;28;20063;-67
2021/12/03 07:46:58;;;;;;;15.32;2.05;;;;;;;;;;5109721;28;20810;-66
2021/12/03 07:49:25;;;;;;;4.50;1.63;;;;;;;;;;5112413;28;20374;-69
2021/12/03 07:51:51;;;;;;;10.23;1.77;;;;;;;;;;5109996;28;20042;-67
2021/12/03 07:54:18;;;;;;;9.52;2.38;;;;;;;;;;5113872;28;20027;-69
2021/12/03 07:56:44;;;;;;;7.85;1.88;;;;;;;;;;5113509;28;20336;-66
2021/12/03 07:59:10;;;;;;;7.57;2.03;;;;;;;;;;5113796;28;20032;-67
2021/12/03 08:01:36;;;;;;;9.73;2.42;;;;;;;;;;5113616;28;20455;-65
2021/12/03 08:04:02;;;;;;;12.52;2.78;;;;;;;;;;5111096;28;20374;-71
2021/12/03 08:06:28;;;;;;;14.50;2.70;;;;;;;;;;5093263;28;20039;-68
2021/12/03 08:08:53;;;;;;;14.98;3.17;;;;;;;;;;5093059;28;20024;-66
2021/12/03 08:11:19;;;;;;;12.40;2.70;;;;;;;;;;5104487;27;20383;-66
2021/12/03 08:13:45;;;;;;;8.68;2.38;;;;;;;;;;5112869;28;20024;-65
2021/12/03 08:16:12;;;;;;;12.02;2.83;;;;;;;;;;5113653;28;20763;-65
2021/12/03 08:18:38;;;;;;;12.98;2.60;;;;;;;;;;5112622;28;20031;-65
2021/12/03 08:21:04;;;;;;;11.55;2.50;;;;;;;;;;5113305;28;20042;-66
2021/12/03 08:23:30;;;;;;;14.40;2.50;;;;;;;;;;5113203;28;20372;-65
2021/12/03 08:25:57;;;;;;;10.60;2.67;;;;;;;;;;5113248;28;20116;-66
2021/12/03 08:28:23;;;;;;;11.13;2.92;;;;;;;;;;5109386;28;20386;-67
2021/12/03 08:30:49;;;;;;;12.07;3.03;;;;;;;;;;5101126;28;20043;-68
2021/12/03 08:33:17;;;;;;;13.13;2.97;;;;;;;;;;5093066;28;20047;-67
2021/12/03 08:35:43;;;;;;;11.88;2.47;;;;;;;;;;5074688;28;20016;-67
2021/12/03 08:38:09;;;;;;;10.70;2.58;;;;;;;;;;5112031;28;20510;-68
2021/12/03 08:40:35;;;;;;;12.23;2.85;;;;;;;;;;5112962;28;20077;-67
2021/12/03 08:43:01;;;;;;;11.40;2.40;;;;;;;;;;5112341;28;20524;-67
2021/12/03 08:45:27;;;;;;;7.75;2.22;;;;;;;;;;5112947;28;20016;-66
2021/12/03 08:47:58;;;;;;;13.98;2.33;;;;;;;;;;5112889;28;20540;-66
2021/12/03 08:50:34;;;;;;;7.18;2.47;;;;;;;;;;5107620;28;20011;-66
2021/12/03 08:55:38;;;;;;;4.97;1.98;;;;;;;;;;5112930;28;20035;-67
2021/12/03 08:58:04;;;;;;;5.93;1.98;;;;;;;;;;5112783;28;20428;-65
2021/12/03 09:00:30;;;;;;;7.53;2.00;;;;;;;;;;5112662;28;20035;-66
2021/12/03 09:02:56;;;;;;;7.95;2.40;;;;;;;;;;5112106;28;20023;-66
2021/12/03 09:05:28;;;;;;;6.82;1.73;;;;;;;;;;5112776;28;20471;-65
2021/12/03 09:07:54;;;;;;;5.82;1.88;;;;;;;;;;5112521;28;20019;-66
2021/12/03 09:10:20;;;;;;;6.18;1.83;;;;;;;;;;5112667;28;20390;-65
2021/12/03 09:12:46;;;;;;;7.80;1.80;;;;;;;;;;5112340;28;20043;-66
2021/12/03 09:15:15;;;;;;;8.82;1.85;;;;;;;;;;5110959;28;20032;-67
2021/12/03 09:17:52;;;;;;;6.63;1.75;;;;;;;;;;5112985;28;20035;-67
2021/12/03 09:20:41;;;;;;;6.03;2.08;;;;;;;;;;5111821;28;20387;-67
2021/12/03 09:23:20;;;;;;;6.18;1.77;;;;;;;;;;5112985;28;20042;-67
2021/12/03 09:25:56;;;;;;;4.75;1.55;;;;;;;;;;5116029;28;20035;-68
2021/12/03 09:28:26;;;;;;;5.55;1.73;;;;;;;;;;5116691;28;20023;-67
2021/12/03 09:30:53;;;;;;;8.00;2.25;;;;;;;;;;5116540;28;20020;-66
2021/12/03 09:33:22;;;;;;;4.78;1.38;;;;;;;;;;5116657;28;20032;-65
2021/12/03 09:35:53;;;;;;;9.93;1.85;;;;;;;;;;5115572;28;20023;-66
2021/12/03 09:38:19;;;;;;;9.68;2.00;;;;;;;;;;5098964;28;20027;-68
2021/12/03 09:40:46;;;;;;;4.70;1.48;;;;;;;;;;5116324;28;20110;-67
2021/12/03 09:43:14;;;;;;;6.70;1.70;;;;;;;;;;5116293;28;20027;-67
2021/12/03 09:45:47;;;;;;;9.85;1.85;;;;;;;;;;5116191;28;20024;-67
2021/12/03 09:48:29;;;;;;;6.32;1.85;;;;;;;;;;5115894;28;20085;-69
2021/12/03 09:50:55;;;;;;;4.13;1.47;;;;;;;;;;5110822;28;20098;-67
2021/12/03 09:53:52;;;;;;;8.27;1.83;;;;;;;;;;5116079;28;20098;-66
2021/12/03 09:56:10;;;;;;;5.63;1.80;;;;;;;;;;5114527;28;20019;-67
2021/12/03 10:15:23;;;;;;;7.28;2.15;;;;;;;;;;5098109;28;20026;-67
2021/12/03 10:28:45;;;;;;;8.50;2.47;;;;;;;;;;5115232;28;20050;-66
2021/12/03 10:37:04;;;;;;;11.60;2.53;;;;;;;;;;5111867;28;20509;-68
2021/12/03 10:39:40;;;;;;;10.73;2.83;;;;;;;;;;5112748;28;20086;-67
2021/12/03 10:48:08;;;;;;;6.55;2.20;;;;;;;;;;5115218;28;20038;-68
2021/12/03 11:06:36;;;;;;;8.95;2.78;;;;;;;;;;5114704;28;20081;-67
2021/12/03 11:17:22;;;;;;;9.88;2.40;;;;;;;;;;5094451;28;20030;-68
2021/12/03 12:00:35;;;;;;;8.55;2.38;;;;;;;;;;5093260;28;20035;-67
2021/12/03 12:09:32;;;;;;;4.97;1.75;;;;;;;;;;5112711;28;20024;-67
2021/12/03 12:11:32;;;;;;;8.20;1.70;;;;;;;;;;5104170;28;20039;-69
2021/12/03 13:14:32;;;;;;;4.97;1.95;;;;;;;;;;5072862;28;20063;-66
2021/12/03 13:45:15;;;;;;;2.92;1.73;;;;;;;;;;5104924;28;20039;-66
2021/12/03 14:08:34;;;;;;;2.90;1.35;;;;;;;;;;5095114;28;20027;-66
2021/12/03 14:19:58;;;;;;;2.97;1.25;;;;;;;;;;5103227;28;20058;-67
2021/12/03 14:24:06;;;;;;;3.08;1.30;;;;;;;;;;5103757;28;20089;-67
2021/12/03 14:39:04;;;;;;;2.55;1.20;;;;;;;;;;5104966;28;20020;-67
2021/12/03 14:54:53;;;;;;;1.05;0.95;;;;;;;;;;5056103;28;20161;-67
2021/12/03 15:00:32;;;;;;;3.53;0.90;;;;;;;;;;5100264;28;20023;-66
2021/12/03 15:05:45;;;;;;;1.95;1.08;;;;;;;;;;5094415;28;20462;-64
2021/12/03 15:08:15;;;;;;;1.65;0.80;;;;;;;;;;5098302;28;20028;-66
2021/12/03 15:34:16;;;;;;;1.45;1.00;;;;;;;;;;5113861;28;20028;-66
2021/12/03 15:37:11;;;;;;;0.80;0.80;;;;;;;;;;5114578;28;20442;-66
2021/12/03 15:56:24;;;;;;;1.67;0.88;;;;;;;;;;5114598;28;20020;-67
2021/12/03 16:04:28;;;;;;;6.45;1.10;;;;;;;;;;5114417;28;20045;-68
2021/12/03 16:14:57;;;;;;;6.15;1.10;;;;;;;;;;5106801;28;20127;-65
2021/12/03 16:25:27;;;;;;;2.42;0.90;;;;;;;;;;5110559;28;20084;-66
2021/12/03 16:52:04;;;;;;;0.93;0.70;;;;;;;;;;5092969;28;20097;-66
2021/12/03 16:54:39;;;;;;;1.25;0.80;;;;;;;;;;5093226;28;20032;-66
2021/12/03 16:57:07;;;;;;;1.00;0.77;;;;;;;;;;5093192;28;20030;-66
2021/12/03 16:59:33;;;;;;;1.27;0.95;;;;;;;;;;5093294;28;20031;-66
2021/12/03 17:02:04;;;;;;;1.65;0.70;;;;;;;;;;5108153;28;20050;-67
2021/12/03 17:12:36;;;;;;;2.15;0.90;;;;;;;;;;5112929;28;20032;-66
2021/12/03 17:31:55;;;;;;;1.15;0.80;;;;;;;;;;5107840;28;20111;-66
2021/12/03 17:45:47;;;;;;;1.20;0.98;;;;;;;;;;5092133;28;20138;-66
2021/12/03 17:51:11;;;;;;;2.25;1.13;;;;;;;;;;5115728;28;20030;-66
2021/12/03 17:53:54;;;;;;;2.75;1.13;;;;;;;;;;5116632;28;20036;-66
2021/12/03 17:56:20;;;;;;;3.50;0.98;;;;;;;;;;5110356;28;20130;-65
2021/12/03 17:59:06;;;;;;;6.22;1.13;;;;;;;;;;5097921;28;20063;-65
2021/12/03 18:01:38;;;;;;;2.88;1.00;;;;;;;;;;5116569;28;20020;-66
2021/12/03 18:04:10;;;;;;;1.70;1.17;;;;;;;;;;5116348;28;20020;-66
2021/12/03 18:07:04;;;;;;;1.65;1.00;;;;;;;;;;5116439;28;20065;-66
2021/12/03 18:09:48;;;;;;;2.55;1.17;;;;;;;;;;5106720;28;20039;-66
2021/12/03 18:58:04;;;;;;;16.48;2.40;;;;;;;;;;5111708;28;20023;-68
2021/12/03 19:00:35;;;;;;;10.10;2.10;;;;;;;;;;5115312;28;20467;-67
2021/12/03 19:03:14;;;;;;;19.23;2.05;;;;;;;;;;5115549;28;20399;-67
2021/12/03 19:08:13;;;;;;;18.75;2.33;;;;;;;;;;5116029;28;20395;-67
2021/12/03 19:10:50;;;;;;;44.28;3.00;;;;;;;;;;5102849;28;20173;-66
2021/12/03 19:13:23;;;;;;;22.73;2.95;;;;;;;;;;5094822;28;20031;-68
2021/12/03 19:15:50;;;;;;;22.25;2.90;;;;;;;;;;5094944;28;20024;-67
2021/12/03 19:18:16;;;;;;;11.98;2.38;;;;;;;;;;5094556;28;20491;-67
2021/12/03 19:20:43;;;;;;;11.73;2.67;;;;;;;;;;5109697;28;20031;-71
2021/12/03 19:23:09;;;;;;;14.35;2.80;;;;;;;;;;5114643;28;20092;-66
2021/12/03 19:25:36;;;;;;;11.43;2.47;;;;;;;;;;5114636;28;20094;-66
2021/12/03 19:28:02;;;;;;;13.68;2.58;;;;;;;;;;5109360;28;20073;-67
2021/12/03 19:30:28;;;;;;;18.65;2.50;;;;;;;;;;5094249;28;20025;-67
2021/12/03 19:32:54;;;;;;;12.65;2.47;;;;;;;;;;5094301;28;20044;-67
2021/12/03 19:35:24;;;;;;;12.50;2.95;;;;;;;;;;5110760;28;20031;-68
2021/12/03 19:37:54;;;;;;;21.25;3.42;;;;;;;;;;5114424;28;20027;-66
2021/12/03 19:40:20;;;;;;;20.95;3.13;;;;;;;;;;5114132;28;20360;-66
2021/12/03 19:42:55;;;;;;;18.63;2.53;;;;;;;;;;5124195;27;20050;-67
2021/12/03 19:45:24;;;;;;;22.77;2.60;;;;;;;;;;5123288;27;20081;-67
2021/12/03 19:50:22;;;;;;;20.45;2.35;;;;;;;;;;5114036;28;20016;-67
2021/12/03 19:52:56;;;;;;;10.88;2.72;;;;;;;;;;5113918;28;20551;-67
2021/12/03 19:55:22;;;;;;;8.60;2.78;;;;;;;;;;5114551;28;20110;-67
2021/12/03 19:57:48;;;;;;;12.30;2.58;;;;;;;;;;5114329;28;20027;-67
2021/12/03 20:00:15;;;;;;;6.35;2.13;;;;;;;;;;5134477;27;20095;-66
2021/12/03 20:02:41;;;;;;;12.10;2.70;;;;;;;;;;5134996;27;20038;-66
2021/12/03 20:05:07;;;;;;;11.60;2.50;;;;;;;;;;5134331;27;20027;-66
2021/12/03 20:07:33;;;;;;;7.80;2.38;;;;;;;;;;5134463;27;20047;-66
2021/12/03 20:10:08;;;;;;;6.40;2.60;;;;;;;;;;5133456;27;20545;-66
2021/12/03 20:12:34;;;;;;;5.30;2.42;;;;;;;;;;5134354;27;20123;-66
2021/12/03 20:15:03;;;;;;;4.80;2.58;;;;;;;;;;5132709;27;20106;-66
2021/12/03 20:17:32;;;;;;;6.35;2.65;;;;;;;;;;5134644;27;20059;-66
2021/12/03 20:20:01;;;;;;;13.15;2.63;;;;;;;;;;5122431;27;20016;-67
2021/12/03 20:22:47;;;;;;;8.50;2.40;;;;;;;;;;5113523;28;20028;-67
2021/12/03 20:25:32;;;;;;;5.75;2.38;;;;;;;;;;5113622;28;20034;-67
2021/12/03 20:28:07;;;;;;;7.50;2.30;;;;;;;;;;5113569;28;20455;-66
2021/12/03 20:30:45;;;;;;;6.50;2.20;;;;;;;;;;5113494;28;20115;-67
2021/12/03 20:38:17;;;;;;;5.47;2.20;;;;;;;;;;5113755;28;20089;-68
2021/12/03 20:40:49;;;;;;;4.45;2.10;;;;;;;;;;5094853;28;20080;-67
2021/12/03 20:43:37;;;;;;;4.25;2.05;;;;;;;;;;5071792;28;20074;-67
2021/12/03 21:10:21;;;;;;;6.50;2.25;;;;;;;;;;5090085;28;20054;-65
2021/12/03 21:12:49;;;;;;;7.38;2.10;;;;;;;;;;5092326;28;20032;-66
2021/12/03 21:15:30;;;;;;;7.72;2.35;;;;;;;;;;5087095;28;20028;-67
2021/12/03 21:20:28;;;;;;;4.35;2.15;;;;;;;;;;5094119;28;20044;-66
2021/12/03 21:22:58;;;;;;;6.28;2.08;;;;;;;;;;5096221;28;20039;-67
2021/12/03 21:25:28;;;;;;;4.22;2.30;;;;;;;;;;5096579;28;20016;-66
2021/12/03 21:27:59;;;;;;;4.95;2.03;;;;;;;;;;5070293;28;20051;-67
2021/12/03 21:33:32;;;;;;;3.83;1.58;;;;;;;;;;5094636;28;20028;-67
2021/12/03 21:43:21;;;;;;;2.67;1.77;;;;;;;;;;5094455;28;20127;-66
2021/12/03 21:45:47;;;;;;;3.28;2.17;;;;;;;;;;5095893;28;20060;-67
2021/12/03 21:48:13;;;;;;;5.68;1.85;;;;;;;;;;5095930;28;20024;-67
2021/12/03 21:50:39;;;;;;;3.97;1.98;;;;;;;;;;5072154;28;20035;-67
2021/12/03 21:53:05;;;;;;;10.02;2.13;;;;;;;;;;5095533;28;20111;-67
2021/12/03 21:55:34;;;;;;;3.05;2.17;;;;;;;;;;5095893;28;20456;-65
2021/12/03 21:58:00;;;;;;;3.28;1.83;;;;;;;;;;5095904;28;20016;-68
2021/12/03 22:00:26;;;;;;;4.05;1.90;;;;;;;;;;5095823;28;20141;-66
2021/12/03 22:02:52;;;;;;;4.35;2.10;;;;;;;;;;5093102;28;20032;-65
2021/12/03 22:05:18;;;;;;;7.47;2.13;;;;;;;;;;5095987;28;20073;-67
2021/12/03 22:07:44;;;;;;;4.35;2.05;;;;;;;;;;5095646;28;20020;-67
2021/12/03 22:10:10;;;;;;;5.65;2.13;;;;;;;;;;5095725;28;20109;-67
2021/12/03 22:12:36;;;;;;;2.40;1.95;;;;;;;;;;5103706;28;20067;-67
2021/12/03 22:15:03;;;;;;;10.02;2.30;;;;;;;;;;5115928;28;20028;-66
2021/12/03 22:17:29;;;;;;;4.70;2.22;;;;;;;;;;5115641;28;20024;-64
2021/12/03 22:19:55;;;;;;;2.97;2.10;;;;;;;;;;5116195;28;20444;-64
2021/12/03 22:22:21;;;;;;;3.65;2.90;;;;;;;;;;5097408;28;20122;-64
2021/12/03 22:24:48;;;;;;;7.22;2.33;;;;;;;;;;5116379;28;20024;-66
2021/12/03 22:27:14;;;;;;;3.03;2.10;;;;;;;;;;5115991;28;20482;-65
2021/12/03 22:29:40;;;;;;;4.60;2.33;;;;;;;;;;5114962;28;20024;-65
2021/12/03 22:32:06;;;;;;;3.47;2.33;;;;;;;;;;5096502;28;20078;-66
2021/12/03 22:34:33;;;;;;;4.10;2.15;;;;;;;;;;5115859;28;20092;-64
2021/12/03 22:36:59;;;;;;;3.15;1.92;;;;;;;;;;5115517;28;20019;-64
2021/12/03 22:39:25;;;;;;;4.55;2.33;;;;;;;;;;5115668;28;20085;-64
2021/12/03 22:41:53;;;;;;;2.45;2.03;;;;;;;;;;5115447;28;20051;-64
2021/12/03 22:44:19;;;;;;;5.38;2.08;;;;;;;;;;5112833;28;20019;-64
2021/12/03 22:47:00;;;;;;;2.15;1.80;;;;;;;;;;5075143;28;20028;-64